sensor_id;sensor_type;location;lat;lon;timestamp;pressure;altitude;pressure_sealevel;temperature;humidity
40245;BME280;25963;42.694;23.600;2023-08-31T00:00:14;94669.94;;;22.51;62.81
40245;BME280;25963;42.694;23.600;2023-08-31T00:02:40;94670.72;;;22.51;62.79
40245;BME280;25963;42.694;23.600;2023-08-31T00:05:06;94661.06;;;22.50;63.57
40245;BME280;25963;42.694;23.600;2023-08-31T00:07:32;94672.19;;;22.58;64.34
40245;BME280;25963;42.694;23.600;2023-08-31T00:09:57;94648.63;;;22.18;65.39
40245;BME280;25963;42.694;23.600;2023-08-31T00:12:23;94663.50;;;22.38;65.34
40245;BME280;25963;42.694;23.600;2023-08-31T00:14:52;94669.00;;;22.19;65.09
40245;BME280;25963;42.694;23.600;2023-08-31T00:17:18;94670.63;;;22.20;65.12
40245;BME280;25963;42.694;23.600;2023-08-31T00:19:44;94670.00;;;22.09;65.87
40245;BME280;25963;42.694;23.600;2023-08-31T00:22:10;94664.09;;;21.85;66.35
40245;BME280;25963;42.694;23.600;2023-08-31T00:24:35;94668.53;;;21.89;65.76
40245;BME280;25963;42.694;23.600;2023-08-31T00:27:03;94671.34;;;21.84;67.76
40245;BME280;25963;42.694;23.600;2023-08-31T00:29:29;94671.44;;;21.65;67.77
40245;BME280;25963;42.694;23.600;2023-08-31T00:31:55;94668.97;;;21.69;69.27
40245;BME280;25963;42.694;23.600;2023-08-31T00:34:21;94672.72;;;21.96;69.16
40245;BME280;25963;42.694;23.600;2023-08-31T00:36:46;94674.50;;;22.00;67.92
40245;BME280;25963;42.694;23.600;2023-08-31T00:39:11;94677.97;;;22.01;67.49
40245;BME280;25963;42.694;23.600;2023-08-31T00:41:37;94674.13;;;21.93;67.77
40245;BME280;25963;42.694;23.600;2023-08-31T00:44:03;94675.41;;;21.96;66.38
40245;BME280;25963;42.694;23.600;2023-08-31T00:46:32;94671.72;;;22.05;66.97
40245;BME280;25963;42.694;23.600;2023-08-31T00:48:58;94676.84;;;22.16;66.27
40245;BME280;25963;42.694;23.600;2023-08-31T00:51:24;94677.47;;;22.13;65.64
40245;BME280;25963;42.694;23.600;2023-08-31T00:53:53;94683.75;;;22.08;68.09
40245;BME280;25963;42.694;23.600;2023-08-31T00:56:20;94686.53;;;22.03;67.33
40245;BME280;25963;42.694;23.600;2023-08-31T00:58:45;94689.41;;;22.06;68.03
40245;BME280;25963;42.694;23.600;2023-08-31T01:09:19;94685.06;;;21.97;65.34
40245;BME280;25963;42.694;23.600;2023-08-31T01:14:19;94693.72;;;21.94;65.40
40245;BME280;25963;42.694;23.600;2023-08-31T01:16:49;94693.59;;;21.71;67.80
40245;BME280;25963;42.694;23.600;2023-08-31T01:19:50;94698.59;;;21.64;67.72
40245;BME280;25963;42.694;23.600;2023-08-31T01:24:53;94698.19;;;21.57;68.69
40245;BME280;25963;42.694;23.600;2023-08-31T01:27:19;94693.09;;;21.41;69.48
40245;BME280;25963;42.694;23.600;2023-08-31T01:29:44;94678.09;;;21.40;67.74
40245;BME280;25963;42.694;23.600;2023-08-31T01:32:10;94694.00;;;21.37;69.37
40245;BME280;25963;42.694;23.600;2023-08-31T01:34:35;94700.78;;;21.48;68.57
40245;BME280;25963;42.694;23.600;2023-08-31T01:37:08;94704.41;;;21.38;69.24
40245;BME280;25963;42.694;23.600;2023-08-31T01:39:44;94700.66;;;21.39;70.37
40245;BME280;25963;42.694;23.600;2023-08-31T01:42:13;94702.91;;;21.32;71.60
40245;BME280;25963;42.694;23.600;2023-08-31T01:44:42;94698.78;;;21.07;69.36
40245;BME280;25963;42.694;23.600;2023-08-31T01:47:10;94696.53;;;21.28;69.08
40245;BME280;25963;42.694;23.600;2023-08-31T01:49:39;94701.78;;;21.19;69.75
40245;BME280;25963;42.694;23.600;2023-08-31T01:52:05;94702.84;;;21.05;69.76
40245;BME280;25963;42.694;23.600;2023-08-31T01:54:31;94707.38;;;20.90;69.29
40245;BME280;25963;42.694;23.600;2023-08-31T01:56:56;94708.84;;;20.64;69.46
40245;BME280;25963;42.694;23.600;2023-08-31T01:59:22;94717.72;;;20.21;70.62
40245;BME280;25963;42.694;23.600;2023-08-31T02:01:47;94714.66;;;20.52;70.76
40245;BME280;25963;42.694;23.600;2023-08-31T02:04:13;94712.66;;;19.77;75.66
40245;BME280;25963;42.694;23.600;2023-08-31T02:06:38;94712.16;;;20.18;71.12
40245;BME280;25963;42.694;23.600;2023-08-31T02:09:04;94718.72;;;19.88;71.28
40245;BME280;25963;42.694;23.600;2023-08-31T02:11:31;94712.19;;;19.75;71.62
40245;BME280;25963;42.694;23.600;2023-08-31T02:13:57;94722.56;;;19.52;75.11
40245;BME280;25963;42.694;23.600;2023-08-31T02:16:23;94702.16;;;19.32;74.55
40245;BME280;25963;42.694;23.600;2023-08-31T02:18:48;94718.88;;;19.19;75.70
40245;BME280;25963;42.694;23.600;2023-08-31T02:21:13;94717.50;;;19.22;75.72
40245;BME280;25963;42.694;23.600;2023-08-31T02:23:39;94719.78;;;19.09;77.45
40245;BME280;25963;42.694;23.600;2023-08-31T02:26:04;94730.13;;;19.45;75.14
40245;BME280;25963;42.694;23.600;2023-08-31T02:28:30;94720.69;;;18.95;77.00
40245;BME280;25963;42.694;23.600;2023-08-31T02:31:01;94717.69;;;19.01;76.71
40245;BME280;25963;42.694;23.600;2023-08-31T02:33:26;94724.00;;;19.15;77.40
40245;BME280;25963;42.694;23.600;2023-08-31T02:35:54;94735.50;;;19.40;75.27
40245;BME280;25963;42.694;23.600;2023-08-31T02:38:20;94724.25;;;19.43;75.32
40245;BME280;25963;42.694;23.600;2023-08-31T02:40:49;94731.66;;;19.51;74.19
40245;BME280;25963;42.694;23.600;2023-08-31T02:43:15;94737.66;;;19.38;74.75
40245;BME280;25963;42.694;23.600;2023-08-31T02:45:40;94747.16;;;19.54;73.95
40245;BME280;25963;42.694;23.600;2023-08-31T02:48:09;94739.34;;;19.58;74.57
40245;BME280;25963;42.694;23.600;2023-08-31T02:50:35;94731.88;;;19.31;75.32
40245;BME280;25963;42.694;23.600;2023-08-31T02:53:01;94733.94;;;19.39;75.08
40245;BME280;25963;42.694;23.600;2023-08-31T02:55:27;94730.19;;;19.64;72.90
40245;BME280;25963;42.694;23.600;2023-08-31T02:57:53;94736.53;;;19.73;72.36
40245;BME280;25963;42.694;23.600;2023-08-31T03:00:18;94742.41;;;19.75;72.24
40245;BME280;25963;42.694;23.600;2023-08-31T03:02:47;94753.44;;;19.69;74.02
40245;BME280;25963;42.694;23.600;2023-08-31T03:05:13;94739.72;;;19.46;74.84
40245;BME280;25963;42.694;23.600;2023-08-31T03:07:38;94743.34;;;19.31;74.81
40245;BME280;25963;42.694;23.600;2023-08-31T03:10:04;94751.91;;;19.33;74.72
40245;BME280;25963;42.694;23.600;2023-08-31T03:12:30;94756.34;;;19.43;73.81
40245;BME280;25963;42.694;23.600;2023-08-31T03:14:55;94750.41;;;19.22;74.83
40245;BME280;25963;42.694;23.600;2023-08-31T03:17:21;94749.25;;;19.28;74.97
40245;BME280;25963;42.694;23.600;2023-08-31T03:19:46;94755.59;;;19.08;75.64
40245;BME280;25963;42.694;23.600;2023-08-31T03:22:12;94763.78;;;19.17;76.05
40245;BME280;25963;42.694;23.600;2023-08-31T03:24:37;94765.47;;;19.08;76.05
40245;BME280;25963;42.694;23.600;2023-08-31T03:27:03;94751.41;;;18.97;75.96
40245;BME280;25963;42.694;23.600;2023-08-31T03:29:28;94763.09;;;19.06;75.33
40245;BME280;25963;42.694;23.600;2023-08-31T03:31:54;94772.75;;;19.02;75.20
40245;BME280;25963;42.694;23.600;2023-08-31T03:34:20;94773.78;;;18.67;76.78
40245;BME280;25963;42.694;23.600;2023-08-31T03:36:45;94769.16;;;18.83;75.61
40245;BME280;25963;42.694;23.600;2023-08-31T03:39:11;94771.84;;;18.83;75.30
40245;BME280;25963;42.694;23.600;2023-08-31T03:41:36;94772.28;;;18.45;76.86
40245;BME280;25963;42.694;23.600;2023-08-31T03:44:02;94784.31;;;18.48;76.70
40245;BME280;25963;42.694;23.600;2023-08-31T03:46:28;94773.03;;;18.61;76.96
40245;BME280;25963;42.694;23.600;2023-08-31T03:48:53;94785.38;;;18.52;76.63
40245;BME280;25963;42.694;23.600;2023-08-31T03:51:19;94783.63;;;18.71;76.65
40245;BME280;25963;42.694;23.600;2023-08-31T03:53:44;94787.97;;;18.57;76.77
40245;BME280;25963;42.694;23.600;2023-08-31T03:56:10;94790.06;;;18.70;75.91
40245;BME280;25963;42.694;23.600;2023-08-31T03:58:36;94779.88;;;18.78;75.38
40245;BME280;25963;42.694;23.600;2023-08-31T04:01:02;94797.63;;;18.53;76.55
40245;BME280;25963;42.694;23.600;2023-08-31T04:03:28;94804.06;;;18.47;76.38
40245;BME280;25963;42.694;23.600;2023-08-31T04:05:56;94800.41;;;18.33;76.89
40245;BME280;25963;42.694;23.600;2023-08-31T04:08:22;94815.31;;;18.44;76.91
40245;BME280;25963;42.694;23.600;2023-08-31T04:10:47;94789.63;;;18.48;75.78
40245;BME280;25963;42.694;23.600;2023-08-31T04:13:13;94820.31;;;18.61;75.53
40245;BME280;25963;42.694;23.600;2023-08-31T04:15:38;94827.72;;;18.79;74.67
40245;BME280;25963;42.694;23.600;2023-08-31T04:18:04;94835.13;;;18.87;74.47
40245;BME280;25963;42.694;23.600;2023-08-31T04:20:30;94829.66;;;18.58;76.09
40245;BME280;25963;42.694;23.600;2023-08-31T04:22:55;94841.16;;;18.54;76.26
40245;BME280;25963;42.694;23.600;2023-08-31T04:25:21;94844.28;;;18.76;76.10
40245;BME280;25963;42.694;23.600;2023-08-31T04:27:46;94840.72;;;18.91;75.90
40245;BME280;25963;42.694;23.600;2023-08-31T04:30:12;94838.16;;;18.70;77.25
40245;BME280;25963;42.694;23.600;2023-08-31T04:32:37;94846.31;;;18.40;79.79
40245;BME280;25963;42.694;23.600;2023-08-31T04:35:05;94841.00;;;18.84;79.35
40245;BME280;25963;42.694;23.600;2023-08-31T04:37:34;94852.28;;;19.21;79.02
40245;BME280;25963;42.694;23.600;2023-08-31T04:40:00;94847.16;;;20.17;74.29
40245;BME280;25963;42.694;23.600;2023-08-31T04:42:25;94855.03;;;21.13;68.08
40245;BME280;25963;42.694;23.600;2023-08-31T04:44:51;94846.31;;;22.19;63.45
40245;BME280;25963;42.694;23.600;2023-08-31T04:47:16;94844.66;;;23.23;58.19
40245;BME280;25963;42.694;23.600;2023-08-31T04:49:42;94833.38;;;24.11;54.16
40245;BME280;25963;42.694;23.600;2023-08-31T04:52:08;94824.53;;;24.77;51.58
40245;BME280;25963;42.694;23.600;2023-08-31T04:54:33;94826.31;;;25.08;49.86
40245;BME280;25963;42.694;23.600;2023-08-31T04:56:59;94828.31;;;25.80;48.92
40245;BME280;25963;42.694;23.600;2023-08-31T04:59:24;94830.69;;;26.37;46.61
40245;BME280;25963;42.694;23.600;2023-08-31T05:01:49;94820.25;;;26.86;44.70
40245;BME280;25963;42.694;23.600;2023-08-31T05:04:15;94839.66;;;27.51;42.78
40245;BME280;25963;42.694;23.600;2023-08-31T05:06:40;94829.88;;;27.92;42.82
40245;BME280;25963;42.694;23.600;2023-08-31T05:09:06;94832.88;;;28.24;41.38
40245;BME280;25963;42.694;23.600;2023-08-31T05:11:31;94830.09;;;28.57;41.07
40245;BME280;25963;42.694;23.600;2023-08-31T05:13:57;94825.03;;;29.21;40.08
40245;BME280;25963;42.694;23.600;2023-08-31T05:16:22;94835.00;;;29.17;40.43
40245;BME280;25963;42.694;23.600;2023-08-31T05:18:49;94831.72;;;29.51;38.98
40245;BME280;25963;42.694;23.600;2023-08-31T05:21:14;94834.25;;;30.00;38.78
40245;BME280;25963;42.694;23.600;2023-08-31T05:23:40;94828.09;;;30.19;37.68
40245;BME280;25963;42.694;23.600;2023-08-31T05:26:05;94836.59;;;29.86;36.76
40245;BME280;25963;42.694;23.600;2023-08-31T05:28:31;94829.78;;;30.24;37.26
40245;BME280;25963;42.694;23.600;2023-08-31T05:30:57;94836.13;;;30.28;36.71
40245;BME280;25963;42.694;23.600;2023-08-31T05:33:25;94835.13;;;30.05;37.01
40245;BME280;25963;42.694;23.600;2023-08-31T05:35:52;94837.13;;;30.08;36.96
40245;BME280;25963;42.694;23.600;2023-08-31T05:38:18;94834.66;;;30.18;37.67
40245;BME280;25963;42.694;23.600;2023-08-31T05:40:43;94833.53;;;30.19;36.99
40245;BME280;25963;42.694;23.600;2023-08-31T05:43:12;94835.25;;;30.40;36.75
40245;BME280;25963;42.694;23.600;2023-08-31T05:45:37;94836.19;;;30.63;35.74
40245;BME280;25963;42.694;23.600;2023-08-31T05:48:03;94840.63;;;31.03;36.26
40245;BME280;25963;42.694;23.600;2023-08-31T05:50:30;94830.53;;;30.72;35.28
40245;BME280;25963;42.694;23.600;2023-08-31T05:52:55;94841.72;;;31.18;35.19
40245;BME280;25963;42.694;23.600;2023-08-31T05:55:21;94838.16;;;31.33;34.48
40245;BME280;25963;42.694;23.600;2023-08-31T05:57:46;94844.31;;;31.30;34.93
40245;BME280;25963;42.694;23.600;2023-08-31T06:00:12;94829.56;;;31.51;35.69
40245;BME280;25963;42.694;23.600;2023-08-31T06:02:38;94839.50;;;31.24;34.69
40245;BME280;25963;42.694;23.600;2023-08-31T06:05:04;94833.31;;;31.62;33.73
40245;BME280;25963;42.694;23.600;2023-08-31T06:07:31;94835.69;;;31.28;34.14
40245;BME280;25963;42.694;23.600;2023-08-31T06:09:57;94847.09;;;30.79;34.92
40245;BME280;25963;42.694;23.600;2023-08-31T06:12:22;94848.78;;;31.03;34.48
40245;BME280;25963;42.694;23.600;2023-08-31T06:14:47;94850.31;;;31.20;35.20
40245;BME280;25963;42.694;23.600;2023-08-31T06:17:13;94848.66;;;31.15;34.87
40245;BME280;25963;42.694;23.600;2023-08-31T06:19:40;94853.09;;;31.04;33.79
40245;BME280;25963;42.694;23.600;2023-08-31T06:22:06;94853.63;;;31.29;35.28
40245;BME280;25963;42.694;23.600;2023-08-31T06:24:32;94853.19;;;31.27;34.82
40245;BME280;25963;42.694;23.600;2023-08-31T06:26:58;94856.38;;;31.29;34.04
40245;BME280;25963;42.694;23.600;2023-08-31T06:29:24;94860.41;;;31.20;33.40
40245;BME280;25963;42.694;23.600;2023-08-31T06:31:49;94856.28;;;30.90;33.64
40245;BME280;25963;42.694;23.600;2023-08-31T06:34:14;94868.50;;;30.65;34.69
40245;BME280;25963;42.694;23.600;2023-08-31T06:36:40;94874.91;;;30.41;34.58
40245;BME280;25963;42.694;23.600;2023-08-31T06:39:06;94875.63;;;30.69;35.10
40245;BME280;25963;42.694;23.600;2023-08-31T06:41:31;94867.88;;;30.71;36.90
40245;BME280;25963;42.694;23.600;2023-08-31T06:43:57;94881.78;;;30.82;36.30
40245;BME280;25963;42.694;23.600;2023-08-31T06:46:22;94886.25;;;30.90;33.48
40245;BME280;25963;42.694;23.600;2023-08-31T06:48:48;94874.69;;;31.13;35.16
40245;BME280;25963;42.694;23.600;2023-08-31T06:51:14;94887.31;;;31.21;34.14
40245;BME280;25963;42.694;23.600;2023-08-31T06:53:41;94891.03;;;31.13;34.37
40245;BME280;25963;42.694;23.600;2023-08-31T06:56:07;94884.19;;;31.03;34.67
40245;BME280;25963;42.694;23.600;2023-08-31T06:58:32;94888.88;;;30.87;35.30
40245;BME280;25963;42.694;23.600;2023-08-31T07:00:58;94890.56;;;31.11;34.07
40245;BME280;25963;42.694;23.600;2023-08-31T07:03:23;94887.31;;;31.21;34.07
40245;BME280;25963;42.694;23.600;2023-08-31T07:05:49;94885.13;;;31.11;35.61
40245;BME280;25963;42.694;23.600;2023-08-31T07:08:14;94882.78;;;31.45;36.29
40245;BME280;25963;42.694;23.600;2023-08-31T07:10:40;94889.91;;;31.33;34.71
40245;BME280;25963;42.694;23.600;2023-08-31T07:13:05;94889.81;;;31.46;35.27
40245;BME280;25963;42.694;23.600;2023-08-31T07:15:31;94893.25;;;31.43;34.60
40245;BME280;25963;42.694;23.600;2023-08-31T07:17:56;94889.47;;;31.67;33.85
40245;BME280;25963;42.694;23.600;2023-08-31T07:20:22;94891.84;;;31.68;34.72
40245;BME280;25963;42.694;23.600;2023-08-31T07:22:47;94891.25;;;31.59;34.32
40245;BME280;25963;42.694;23.600;2023-08-31T07:25:13;94903.94;;;31.51;35.75
40245;BME280;25963;42.694;23.600;2023-08-31T07:27:38;94897.00;;;31.54;33.78
40245;BME280;25963;42.694;23.600;2023-08-31T07:30:04;94896.28;;;31.22;33.45
40245;BME280;25963;42.694;23.600;2023-08-31T07:32:31;94894.94;;;31.31;34.17
40245;BME280;25963;42.694;23.600;2023-08-31T07:34:57;94891.63;;;31.22;35.05
40245;BME280;25963;42.694;23.600;2023-08-31T07:37:22;94898.13;;;30.82;34.36
40245;BME280;25963;42.694;23.600;2023-08-31T07:39:48;94897.91;;;30.59;36.37
40245;BME280;25963;42.694;23.600;2023-08-31T07:42:13;94894.38;;;30.75;36.15
40245;BME280;25963;42.694;23.600;2023-08-31T07:44:38;94897.28;;;30.66;35.50
40245;BME280;25963;42.694;23.600;2023-08-31T07:47:04;94900.28;;;30.45;35.93
40245;BME280;25963;42.694;23.600;2023-08-31T07:49:30;94900.44;;;30.20;36.61
40245;BME280;25963;42.694;23.600;2023-08-31T07:51:56;94901.94;;;30.65;37.06
40245;BME280;25963;42.694;23.600;2023-08-31T07:54:22;94895.38;;;30.82;35.15
40245;BME280;25963;42.694;23.600;2023-08-31T07:56:48;94902.63;;;31.10;35.27
40245;BME280;25963;42.694;23.600;2023-08-31T07:59:13;94890.28;;;30.81;35.55
40245;BME280;25963;42.694;23.600;2023-08-31T08:01:39;94887.28;;;30.70;33.73
40245;BME280;25963;42.694;23.600;2023-08-31T08:04:06;94895.56;;;30.58;35.04
40245;BME280;25963;42.694;23.600;2023-08-31T08:06:31;94888.34;;;30.34;33.63
40245;BME280;25963;42.694;23.600;2023-08-31T08:08:57;94905.63;;;30.41;36.08
40245;BME280;25963;42.694;23.600;2023-08-31T08:11:22;94903.88;;;30.65;33.59
40245;BME280;25963;42.694;23.600;2023-08-31T08:13:48;94894.28;;;30.39;33.75
40245;BME280;25963;42.694;23.600;2023-08-31T08:16:13;94896.88;;;30.80;34.38
40245;BME280;25963;42.694;23.600;2023-08-31T08:18:40;94906.69;;;30.68;34.11
40245;BME280;25963;42.694;23.600;2023-08-31T08:21:05;94904.84;;;30.25;34.29
40245;BME280;25963;42.694;23.600;2023-08-31T08:23:31;94899.53;;;30.16;34.99
40245;BME280;25963;42.694;23.600;2023-08-31T08:25:56;94903.00;;;30.29;35.56
40245;BME280;25963;42.694;23.600;2023-08-31T08:28:24;94900.88;;;30.38;35.46
40245;BME280;25963;42.694;23.600;2023-08-31T08:30:50;94890.25;;;30.33;34.41
40245;BME280;25963;42.694;23.600;2023-08-31T08:33:15;94892.28;;;30.84;34.23
40245;BME280;25963;42.694;23.600;2023-08-31T08:35:41;94896.31;;;31.06;34.31
40245;BME280;25963;42.694;23.600;2023-08-31T08:38:06;94881.75;;;30.98;33.12
40245;BME280;25963;42.694;23.600;2023-08-31T08:40:32;94894.94;;;31.31;33.13
40245;BME280;25963;42.694;23.600;2023-08-31T08:43:00;94900.16;;;31.75;30.63
40245;BME280;25963;42.694;23.600;2023-08-31T08:45:38;94885.22;;;31.50;34.00
40245;BME280;25963;42.694;23.600;2023-08-31T08:48:07;94894.06;;;31.27;33.98
40245;BME280;25963;42.694;23.600;2023-08-31T08:50:34;94896.91;;;31.15;32.08
40245;BME280;25963;42.694;23.600;2023-08-31T08:53:03;94879.66;;;31.62;32.59
40245;BME280;25963;42.694;23.600;2023-08-31T08:55:29;94894.50;;;31.84;32.28
40245;BME280;25963;42.694;23.600;2023-08-31T08:57:55;94892.69;;;32.11;32.35
40245;BME280;25963;42.694;23.600;2023-08-31T09:00:21;94895.44;;;31.92;31.70
40245;BME280;25963;42.694;23.600;2023-08-31T09:02:48;94890.53;;;32.01;30.74
40245;BME280;25963;42.694;23.600;2023-08-31T09:05:13;94889.69;;;31.77;30.92
40245;BME280;25963;42.694;23.600;2023-08-31T09:10:39;94870.06;;;32.34;31.92
40245;BME280;25963;42.694;23.600;2023-08-31T09:13:09;94878.25;;;32.53;31.72
40245;BME280;25963;42.694;23.600;2023-08-31T09:15:46;94877.16;;;32.15;30.52
40245;BME280;25963;42.694;23.600;2023-08-31T09:20:50;94882.63;;;32.15;30.13
40245;BME280;25963;42.694;23.600;2023-08-31T09:23:17;94875.75;;;32.67;31.59
40245;BME280;25963;42.694;23.600;2023-08-31T09:25:48;94884.28;;;32.20;29.82
40245;BME280;25963;42.694;23.600;2023-08-31T09:28:15;94883.06;;;32.17;29.90
40245;BME280;25963;42.694;23.600;2023-08-31T09:30:41;94866.13;;;32.08;28.88
40245;BME280;25963;42.694;23.600;2023-08-31T09:33:08;94879.28;;;32.45;29.27
40245;BME280;25963;42.694;23.600;2023-08-31T09:35:39;94872.59;;;32.65;27.39
40245;BME280;25963;42.694;23.600;2023-08-31T09:38:07;94879.19;;;32.41;28.10
40245;BME280;25963;42.694;23.600;2023-08-31T09:40:33;94881.22;;;32.67;27.02
40245;BME280;25963;42.694;23.600;2023-08-31T09:42:58;94870.91;;;33.07;27.82
40245;BME280;25963;42.694;23.600;2023-08-31T09:45:34;94883.25;;;32.97;26.60
40245;BME280;25963;42.694;23.600;2023-08-31T09:48:01;94863.94;;;33.70;27.71
40245;BME280;25963;42.694;23.600;2023-08-31T09:50:31;94875.19;;;33.34;27.21
40245;BME280;25963;42.694;23.600;2023-08-31T09:53:04;94887.44;;;32.91;26.88
40245;BME280;25963;42.694;23.600;2023-08-31T09:55:31;94881.41;;;32.82;27.33
40245;BME280;25963;42.694;23.600;2023-08-31T09:58:00;94866.38;;;32.91;28.08
40245;BME280;25963;42.694;23.600;2023-08-31T10:00:26;94866.44;;;33.22;27.00
40245;BME280;25963;42.694;23.600;2023-08-31T10:02:57;94859.44;;;32.71;27.39
40245;BME280;25963;42.694;23.600;2023-08-31T10:05:24;94863.75;;;32.99;28.94
40245;BME280;25963;42.694;23.600;2023-08-31T10:07:52;94863.16;;;32.86;28.19
40245;BME280;25963;42.694;23.600;2023-08-31T10:10:18;94862.19;;;32.74;27.98
40245;BME280;25963;42.694;23.600;2023-08-31T10:12:47;94851.56;;;33.19;27.67
40245;BME280;25963;42.694;23.600;2023-08-31T10:15:14;94865.22;;;32.92;26.44
40245;BME280;25963;42.694;23.600;2023-08-31T10:17:40;94850.28;;;33.39;26.74
40245;BME280;25963;42.694;23.600;2023-08-31T10:20:10;94871.22;;;33.02;25.45
40245;BME280;25963;42.694;23.600;2023-08-31T10:22:37;94861.72;;;33.49;25.33
40245;BME280;25963;42.694;23.600;2023-08-31T10:25:06;94857.03;;;33.49;25.61
40245;BME280;25963;42.694;23.600;2023-08-31T10:27:42;94863.81;;;33.59;25.60
40245;BME280;25963;42.694;23.600;2023-08-31T10:38:33;94860.94;;;33.48;24.70
40245;BME280;25963;42.694;23.600;2023-08-31T10:43:56;94864.16;;;34.25;24.42
40245;BME280;25963;42.694;23.600;2023-08-31T10:48:56;94867.75;;;33.95;24.12
40245;BME280;25963;42.694;23.600;2023-08-31T10:51:27;94859.09;;;33.90;24.22
40245;BME280;25963;42.694;23.600;2023-08-31T10:54:04;94873.16;;;33.88;24.83
40245;BME280;25963;42.694;23.600;2023-08-31T10:56:30;94872.84;;;33.33;26.42
40245;BME280;25963;42.694;23.600;2023-08-31T10:59:00;94867.53;;;34.07;25.65
40245;BME280;25963;42.694;23.600;2023-08-31T11:01:57;94871.09;;;33.78;24.88
40245;BME280;25963;42.694;23.600;2023-08-31T11:04:25;94876.56;;;33.78;25.90
40245;BME280;25963;42.694;23.600;2023-08-31T11:07:16;94880.44;;;34.51;24.27
40245;BME280;25963;42.694;23.600;2023-08-31T11:09:44;94875.13;;;34.66;24.25
40245;BME280;25963;42.694;23.600;2023-08-31T11:12:11;94868.69;;;34.92;22.50
40245;BME280;25963;42.694;23.600;2023-08-31T11:14:37;94871.88;;;35.01;22.33
40245;BME280;25963;42.694;23.600;2023-08-31T11:17:03;94868.94;;;34.76;22.57
40245;BME280;25963;42.694;23.600;2023-08-31T11:19:31;94868.41;;;35.08;24.77
40245;BME280;25963;42.694;23.600;2023-08-31T11:21:57;94862.03;;;34.96;22.28
40245;BME280;25963;42.694;23.600;2023-08-31T11:24:22;94868.09;;;34.65;22.15
40245;BME280;25963;42.694;23.600;2023-08-31T11:26:50;94850.09;;;34.67;22.68
40245;BME280;25963;42.694;23.600;2023-08-31T11:29:15;94853.16;;;35.07;23.44
40245;BME280;25963;42.694;23.600;2023-08-31T11:31:41;94851.06;;;34.96;23.51
40245;BME280;25963;42.694;23.600;2023-08-31T11:34:07;94848.25;;;35.44;22.18
40245;BME280;25963;42.694;23.600;2023-08-31T11:36:36;94857.19;;;35.31;22.95
40245;BME280;25963;42.694;23.600;2023-08-31T11:39:03;94860.75;;;35.38;22.44
40245;BME280;25963;42.694;23.600;2023-08-31T11:41:35;94852.88;;;35.30;22.79
40245;BME280;25963;42.694;23.600;2023-08-31T11:44:04;94841.28;;;35.58;22.57
40245;BME280;25963;42.694;23.600;2023-08-31T11:46:30;94845.66;;;35.04;21.19
40245;BME280;25963;42.694;23.600;2023-08-31T11:49:00;94848.47;;;35.11;22.03
40245;BME280;25963;42.694;23.600;2023-08-31T11:51:26;94853.75;;;34.38;23.68
40245;BME280;25963;42.694;23.600;2023-08-31T11:53:55;94843.28;;;34.06;22.75
40245;BME280;25963;42.694;23.600;2023-08-31T11:56:21;94839.69;;;34.43;24.53
40245;BME280;25963;42.694;23.600;2023-08-31T11:58:52;94843.88;;;34.70;23.86
40245;BME280;25963;42.694;23.600;2023-08-31T12:01:20;94834.38;;;34.57;24.46
40245;BME280;25963;42.694;23.600;2023-08-31T12:03:46;94853.06;;;35.03;24.80
40245;BME280;25963;42.694;23.600;2023-08-31T12:06:15;94855.78;;;34.48;23.75
40245;BME280;25963;42.694;23.600;2023-08-31T12:08:41;94851.78;;;34.83;24.34
40245;BME280;25963;42.694;23.600;2023-08-31T12:11:07;94854.09;;;34.36;23.79
40245;BME280;25963;42.694;23.600;2023-08-31T12:13:32;94846.38;;;34.49;24.80
40245;BME280;25963;42.694;23.600;2023-08-31T12:15:58;94850.50;;;34.69;24.22
40245;BME280;25963;42.694;23.600;2023-08-31T12:18:23;94846.66;;;34.33;24.31
40245;BME280;25963;42.694;23.600;2023-08-31T12:20:51;94841.81;;;34.19;23.87
40245;BME280;25963;42.694;23.600;2023-08-31T12:23:17;94842.69;;;34.27;24.11
40245;BME280;25963;42.694;23.600;2023-08-31T12:25:48;94840.06;;;34.00;24.98
40245;BME280;25963;42.694;23.600;2023-08-31T12:28:15;94848.91;;;33.53;24.28
40245;BME280;25963;42.694;23.600;2023-08-31T12:30:42;94842.41;;;33.34;25.16
40245;BME280;25963;42.694;23.600;2023-08-31T12:33:09;94830.69;;;33.34;25.61
40245;BME280;25963;42.694;23.600;2023-08-31T12:35:35;94841.84;;;33.22;26.44
40245;BME280;25963;42.694;23.600;2023-08-31T12:38:00;94838.59;;;33.42;25.37
40245;BME280;25963;42.694;23.600;2023-08-31T12:40:26;94837.75;;;33.08;26.12
40245;BME280;25963;42.694;23.600;2023-08-31T12:42:51;94811.53;;;33.04;26.10
40245;BME280;25963;42.694;23.600;2023-08-31T12:45:17;94816.69;;;32.82;27.46
40245;BME280;25963;42.694;23.600;2023-08-31T12:47:42;94831.63;;;32.65;28.47
40245;BME280;25963;42.694;23.600;2023-08-31T12:50:08;94835.84;;;32.59;26.41
40245;BME280;25963;42.694;23.600;2023-08-31T12:52:34;94840.00;;;32.76;26.00
40245;BME280;25963;42.694;23.600;2023-08-31T12:54:59;94844.41;;;32.84;25.73
40245;BME280;25963;42.694;23.600;2023-08-31T12:57:25;94841.66;;;32.84;26.58
40245;BME280;25963;42.694;23.600;2023-08-31T12:59:50;94833.22;;;32.93;25.84
40245;BME280;25963;42.694;23.600;2023-08-31T13:02:16;94828.91;;;33.49;27.06
40245;BME280;25963;42.694;23.600;2023-08-31T13:04:41;94822.19;;;33.42;25.87
40245;BME280;25963;42.694;23.600;2023-08-31T13:07:06;94825.16;;;33.60;26.11
40245;BME280;25963;42.694;23.600;2023-08-31T13:09:32;94810.91;;;33.78;25.14
40245;BME280;25963;42.694;23.600;2023-08-31T13:11:57;94823.53;;;33.90;24.09
40245;BME280;25963;42.694;23.600;2023-08-31T13:14:23;94826.59;;;33.84;25.81
40245;BME280;25963;42.694;23.600;2023-08-31T13:16:48;94816.44;;;33.85;25.05
40245;BME280;25963;42.694;23.600;2023-08-31T13:19:13;94820.84;;;33.59;24.87